Time;durP1;ratioP1;P1;durP2;ratioP2;P2;SDS_P1;SDS_P2;PMS_P1;PMS_P2;Temp;Humidity;BMP_temperature;BMP_pressure;BME280_temperature;BME280_humidity;BME280_pressure;Samples;Min_cycle;Max_cycle;Signal;HPM_P1;HPM_P2
2022/09/27 00:02:14;;;;;;;;;;;17.40;45.90;;;15.03;51.78;99307.75;12299372;19;19932;-88
2022/09/27 00:06:34;;;;;;;;;;;17.30;45.90;;;15.34;51.75;99367.91;12253937;19;20275;-89
2022/09/27 00:10:36;;;;;;;;;;;17.30;45.90;;;15.18;51.68;99341.44;12260179;19;19997;-89
2022/09/27 00:14:37;;;;;;;;;;;17.30;45.90;;;15.13;51.70;99328.72;12256821;19;19915;-88
2022/09/27 00:18:39;;;;;;;;;;;17.20;45.80;;;15.23;51.90;99345.28;12256764;19;19926;-88
2022/09/27 00:22:41;;;;;;;;;;;17.20;45.90;;;15.22;51.76;99338.34;12259411;19;19922;-88
2022/09/27 00:26:43;;;;;;;;;;;17.20;46.00;;;14.81;51.88;99266.94;12257528;19;19978;-89
2022/09/27 00:30:44;;;;;;;;;;;17.20;46.00;;;15.02;51.66;99305.28;12258351;19;19914;-88
2022/09/27 00:34:46;;;;;;;;;;;17.20;46.00;;;15.17;51.64;99321.38;12253956;19;19919;-89
2022/09/27 00:38:48;;;;;;;;;;;17.10;45.90;;;15.06;51.80;99314.50;12262948;19;19915;-89
2022/09/27 00:42:50;;;;;;;;;;;17.10;46.00;;;15.03;51.81;99305.13;12293237;19;19936;-88
2022/09/27 00:47:13;;;;;;;;;;;17.10;46.00;;;15.10;51.92;99308.00;12299407;19;19925;-88
2022/09/27 00:51:15;;;;;;;;;;;17.00;45.90;;;14.88;51.81;99272.44;12298864;19;19907;-88
2022/09/27 00:55:22;;;;;;;;;;;17.00;46.00;;;15.04;52.01;99293.66;12293459;19;19919;-88
2022/09/27 00:59:33;;;;;;;;;;;17.00;46.00;;;14.63;51.91;99218.78;12296152;19;19919;-88
2022/09/27 01:03:50;;;;;;;;;;;17.00;46.00;;;14.75;52.07;99230.75;12292277;19;19935;-89
2022/09/27 01:07:55;;;;;;;;;;;17.00;46.00;;;15.05;52.06;99266.38;12295991;19;19914;-89
2022/09/27 01:12:12;;;;;;;;;;;17.00;46.10;;;14.81;51.91;99214.38;12297536;19;19918;-88
2022/09/27 01:16:30;;;;;;;;;;;17.00;46.00;;;14.86;52.01;99227.06;12293973;19;19911;-88
2022/09/27 01:21:20;;;;;;;;;;;17.00;46.00;;;15.15;52.03;99262.81;12297264;19;19903;-88
2022/09/27 01:25:48;;;;;;;;;;;17.00;46.10;;;15.17;51.97;99255.63;12294849;19;19907;-88
2022/09/27 01:30:11;;;;;;;;;;;17.10;46.10;;;15.18;51.97;99257.28;12297316;19;19922;-88
2022/09/27 01:34:23;;;;;;;;;;;17.10;46.10;;;15.19;52.05;99254.50;12113361;19;3471566;-88
2022/09/27 01:38:41;;;;;;;;;;;17.10;46.10;;;15.21;52.00;99252.56;12302955;19;19923;-88
2022/09/27 01:43:04;;;;;;;;;;;17.10;46.10;;;15.14;51.96;99234.91;12299442;19;19940;-88
2022/09/27 01:47:25;;;;;;;;;;;17.10;46.10;;;15.26;51.86;99242.41;12302144;19;19907;-88
2022/09/27 01:51:39;;;;;;;;;;;17.10;46.10;;;15.16;51.88;99218.00;12300866;19;19919;-88
2022/09/27 01:55:43;;;;;;;;;;;17.10;46.10;;;15.16;52.01;99204.03;12292157;19;19919;-88
2022/09/27 02:00:17;;;;;;;;;;;17.10;46.10;;;15.17;52.04;99197.78;12286655;19;19923;-89
2022/09/27 02:04:23;;;;;;;;;;;17.20;46.10;;;15.27;51.91;99194.06;12252807;19;19939;-88
2022/09/27 02:08:30;;;;;;;;;;;17.30;46.10;;;15.25;52.06;99195.22;12257189;19;19919;-88
2022/09/27 02:12:42;;;;;;;;;;;17.20;46.10;;;15.24;51.85;99175.97;12260829;19;19914;-88
2022/09/27 02:16:52;;;;;;;;;;;17.30;46.10;;;15.34;52.06;99183.78;12256932;19;19911;-88
2022/09/27 02:21:04;;;;;;;;;;;17.30;46.10;;;15.09;51.96;99132.78;12261433;19;20261;-88
2022/09/27 02:25:43;;;;;;;;;;;17.30;46.10;;;15.46;52.05;99185.19;12258709;19;19971;-88
2022/09/27 02:29:59;;;;;;;;;;;17.30;46.10;;;15.37;52.00;99162.44;12258240;19;19914;-88
2022/09/27 02:34:12;;;;;;;;;;;17.30;46.10;;;15.14;52.00;99113.94;12258177;19;19922;-88
2022/09/27 02:38:14;;;;;;;;;;;17.40;46.20;;;15.16;51.85;99107.56;12259746;19;19915;-88
2022/09/27 02:42:16;;;;;;;;;;;17.40;46.10;;;15.42;51.84;99143.56;12256635;19;19925;-88
2022/09/27 02:46:54;;;;;;;;;;;17.40;46.20;;;15.51;52.03;99155.78;12252858;19;19915;-88
2022/09/27 02:51:29;;;;;;;;;;;17.40;46.10;;;15.49;51.96;99142.75;12257409;19;19911;-88
2022/09/27 02:55:45;;;;;;;;;;;17.40;46.10;;;15.48;51.88;99140.31;12252066;19;20275;-88
2022/09/27 03:00:29;;;;;;;;;;;17.40;46.10;;;15.13;51.76;99086.00;12256864;19;19943;-88
2022/09/27 03:05:02;;;;;;;;;;;17.30;46.10;;;15.34;51.96;99125.91;12250430;19;19953;-88
2022/09/27 03:09:04;;;;;;;;;;;17.30;46.10;;;15.38;52.15;99129.88;12255465;19;19910;-88
2022/09/27 03:13:05;;;;;;;;;;;17.30;46.10;;;15.08;52.10;99077.75;12251336;19;19922;-88
2022/09/27 03:17:07;;;;;;;;;;;17.30;46.10;;;15.37;52.06;99130.06;12254582;19;19914;-88
2022/09/27 03:21:43;;;;;;;;;;;17.30;46.10;;;15.40;52.12;99133.19;12251874;19;19940;-89
2022/09/27 03:25:45;;;;;;;;;;;17.40;46.10;;;14.90;52.05;99043.63;12251300;19;20001;-88
2022/09/27 03:29:47;;;;;;;;;;;17.30;46.10;;;15.34;52.00;99109.28;12268094;19;19915;-88
2022/09/27 03:33:48;;;;;;;;;;;17.40;46.20;;;15.02;52.21;99056.34;12253698;19;19923;-88
2022/09/27 03:37:49;;;;;;;;;;;17.30;46.10;;;15.40;51.98;99117.41;12254137;19;19929;-88
2022/09/27 03:41:52;;;;;;;;;;;17.30;46.10;;;15.22;52.06;99085.06;12252379;19;19918;-88
2022/09/27 03:45:54;;;;;;;;;;;17.30;46.10;;;15.29;52.03;99088.75;12250827;19;19926;-88
2022/09/27 03:49:55;;;;;;;;;;;17.30;46.20;;;15.40;52.08;99103.44;12253747;19;19911;-88
2022/09/27 03:53:57;;;;;;;;;;;17.30;46.20;;;15.34;52.24;99098.78;12252107;19;19927;-88
2022/09/27 03:57:58;;;;;;;;;;;17.30;46.30;;;15.23;52.21;99081.47;12252509;19;19919;-88
2022/09/27 04:02:00;;;;;;;;;;;17.30;46.30;;;14.96;52.08;99035.09;12245963;19;19923;-88
2022/09/27 04:06:22;;;;;;;;;;;17.40;46.40;;;15.02;52.22;99042.41;12249291;19;20256;-88
2022/09/27 04:10:25;;;;;;;;;;;17.20;46.30;;;15.14;52.26;99064.81;12252419;19;19914;-88
2022/09/27 04:14:26;;;;;;;;;;;17.20;46.40;;;15.19;52.30;99070.44;12253636;19;20374;-89
2022/09/27 04:18:47;;;;;;;;;;;17.40;46.50;;;15.21;52.26;99084.25;12253846;19;19920;-88
2022/09/27 04:23:12;;;;;;;;;;;17.20;46.50;;;15.12;52.35;99064.16;12245703;19;20600;-89
2022/09/27 04:27:18;;;;;;;;;;;17.20;46.50;;;15.16;52.33;99070.75;12249732;19;19919;-87
2022/09/27 04:31:20;;;;;;;;;;;17.20;46.50;;;14.87;52.46;99025.53;12250788;19;19914;-87
2022/09/27 04:39:48;;;;;;;;;;;17.20;46.60;;;15.18;52.21;99065.34;12250703;19;19914;-89
2022/09/27 04:43:50;;;;;;;;;;;17.20;46.60;;;15.20;52.40;99076.50;12248574;19;20328;-87
2022/09/27 04:47:52;;;;;;;;;;;17.10;46.60;;;14.77;52.45;99007.22;12250399;19;19914;-89
2022/09/27 04:51:55;;;;;;;;;;;17.10;46.50;;;15.11;52.44;99067.75;12246941;19;19922;-89
2022/09/27 04:55:57;;;;;;;;;;;17.10;46.40;;;15.14;52.52;99077.94;12246747;19;20000;-87
2022/09/27 04:59:59;;;;;;;;;;;17.10;46.60;;;14.96;52.73;99050.88;12249529;19;19931;-89
2022/09/27 05:04:01;;;;;;;;;;;17.00;46.50;;;15.09;52.53;99080.22;12247790;19;19939;-89
2022/09/27 05:08:04;;;;;;;;;;;17.10;46.50;;;14.99;52.34;99061.94;12251038;19;19925;-86
2022/09/27 05:12:25;;;;;;;;;;;17.10;46.60;;;14.95;52.53;99052.69;12251232;19;19919;-87
2022/09/27 05:16:33;;;;;;;;;;;17.00;46.60;;;14.85;52.49;99041.44;12245754;19;19919;-87
2022/09/27 05:21:06;;;;;;;;;;;17.00;46.70;;;15.07;52.54;99071.69;12246055;19;20366;-87
2022/09/27 05:25:14;;;;;;;;;;;17.00;46.70;;;14.79;52.55;99037.63;12244967;19;19923;-86
2022/09/27 05:29:16;;;;;;;;;;;17.00;46.60;;;15.04;52.58;99069.31;12247874;19;19925;-87
2022/09/27 05:33:26;;;;;;;;;;;17.00;46.90;;;14.68;52.70;99019.47;12254302;19;19927;-90
2022/09/27 05:38:00;;;;;;;;;;;17.00;46.90;;;15.02;52.65;99073.94;12246110;19;19932;-89
2022/09/27 05:42:08;;;;;;;;;;;17.00;46.80;;;14.94;52.85;99072.06;12249289;19;19931;-88
2022/09/27 05:46:09;;;;;;;;;;;17.00;46.90;;;15.02;52.80;99089.72;12252682;19;19934;-88
2022/09/27 05:50:13;;;;;;;;;;;17.20;47.10;;;14.97;52.91;99082.28;12259585;19;20322;-89
2022/09/27 05:54:14;;;;;;;;;;;17.00;46.90;;;14.91;52.91;99067.13;12254536;19;19982;-91
2022/09/27 05:58:16;;;;;;;;;;;16.90;47.20;;;14.95;52.94;99092.13;12256860;19;19961;-90
2022/09/27 06:02:21;;;;;;;;;;;16.90;47.00;;;14.80;53.06;99075.25;12259741;19;19911;-91
2022/09/27 06:06:41;;;;;;;;;;;16.90;47.30;;;14.79;53.20;99071.78;12254778;19;19918;-91
2022/09/27 06:10:44;;;;;;;;;;;16.90;47.50;;;14.82;53.14;99062.78;12258327;19;20416;-90
2022/09/27 06:14:46;;;;;;;;;;;16.90;47.60;;;14.63;53.11;99032.25;12251235;19;19923;-91
2022/09/27 06:18:59;;;;;;;;;;;16.90;47.80;;;14.70;53.16;99056.13;12257174;19;19930;-89
2022/09/27 06:23:10;;;;;;;;;;;16.90;47.50;;;14.83;53.22;99078.41;12254676;19;20287;-91
2022/09/27 06:27:12;;;;;;;;;;;16.90;47.80;;;14.86;53.31;99085.16;12254737;19;19948;-91
2022/09/27 06:31:31;;;;;;;;;;;16.80;47.60;;;14.76;53.36;99069.47;12256495;19;19944;-90
2022/09/27 06:35:40;;;;;;;;;;;16.80;47.60;;;14.44;53.19;99019.25;12238331;19;19915;-88
2022/09/27 06:39:43;;;;;;;;;;;16.80;47.60;;;14.78;53.47;99087.72;12253356;19;19907;-86
2022/09/27 06:44:03;;;;;;;;;;;16.70;47.70;;;14.66;53.45;99068.72;12251213;19;19915;-90
2022/09/27 06:48:24;;;;;;;;;;;16.70;47.90;;;14.65;53.47;99061.00;12257210;19;19923;-88
2022/09/27 06:52:46;;;;;;;;;;;16.70;48.00;;;14.70;53.44;99074.50;12253906;19;19929;-88
2022/09/27 06:56:47;;;;;;;;;;;16.70;48.10;;;14.66;53.63;99068.72;12249862;19;20366;-91
2022/09/27 07:00:51;;;;;;;;;;;16.70;48.00;;;14.63;53.78;99055.88;12247601;19;19922;-92
2022/09/27 07:05:11;;;;;;;;;;;16.70;48.40;;;14.71;53.78;99081.41;12245288;19;19923;-91
2022/09/27 07:09:43;;;;;;;;;;;16.70;48.10;;;14.58;53.56;99068.66;12252991;19;19924;-88
2022/09/27 07:13:46;;;;;;;;;;;16.70;48.20;;;14.47;53.60;99039.97;12242860;19;19960;-88
2022/09/27 07:17:57;;;;;;;;;;;16.70;48.00;;;14.72;53.72;99096.22;12246817;19;19925;-91
2022/09/27 07:21:59;;;;;;;;;;;16.70;48.30;;;14.39;54.02;99046.81;12248343;19;20330;-88
2022/09/27 07:26:03;;;;;;;;;;;16.70;48.10;;;14.64;54.22;99090.91;12249655;19;19911;-88
2022/09/27 07:30:06;;;;;;;;;;;16.60;48.00;;;14.68;54.10;99093.06;12249666;19;19923;-88
2022/09/27 07:34:07;;;;;;;;;;;16.60;48.30;;;14.70;54.24;99088.47;12267514;19;20268;-88
2022/09/27 07:38:12;;;;;;;;;;;16.60;48.10;;;14.57;54.33;99059.13;12254366;19;19915;-88
2022/09/27 07:42:13;;;;;;;;;;;16.60;48.00;;;14.43;54.34;99036.81;12249786;19;19930;-87
2022/09/27 07:46:19;;;;;;;;;;;16.60;48.30;;;14.79;54.25;99087.56;12245845;19;19971;-88
2022/09/27 07:50:29;;;;;;;;;;;16.70;48.50;;;14.80;54.14;99085.78;12247267;19;19915;-88
2022/09/27 07:54:38;;;;;;;;;;;16.70;48.90;;;14.76;54.16;99068.66;12243360;19;19919;-89
2022/09/27 07:58:40;;;;;;;;;;;16.80;48.80;;;14.89;54.07;99073.50;12250637;19;20384;-91
2022/09/27 08:02:43;;;;;;;;;;;16.80;48.70;;;14.83;54.33;99074.94;12248747;19;20287;-88
2022/09/27 08:06:45;;;;;;;;;;;16.90;48.30;;;14.96;54.29;99095.56;12243766;19;20242;-88
2022/09/27 08:10:47;;;;;;;;;;;17.00;48.90;;;14.81;54.22;99067.22;12248620;19;19923;-88
2022/09/27 08:14:49;;;;;;;;;;;16.80;49.10;;;14.89;54.76;99079.59;12245896;19;20305;-89
2022/09/27 08:18:51;;;;;;;;;;;16.90;48.50;;;14.82;54.48;99068.88;12249051;19;20253;-91
2022/09/27 08:23:12;;;;;;;;;;;16.90;48.90;;;14.82;54.46;99060.16;12244820;19;19960;-88
2022/09/27 08:27:17;;;;;;;;;;;16.90;48.50;;;14.77;54.69;99062.41;12247714;19;19921;-88
2022/09/27 08:31:33;;;;;;;;;;;16.90;48.60;;;14.86;54.74;99079.09;12247853;19;19915;-88
2022/09/27 08:35:35;;;;;;;;;;;16.90;48.60;;;14.75;54.61;99067.00;12246657;19;19968;-87
2022/09/27 08:39:37;;;;;;;;;;;16.80;49.00;;;14.81;54.62;99090.03;12246397;19;19922;-90
2022/09/27 08:43:47;;;;;;;;;;;16.80;49.00;;;14.95;54.59;99104.44;12245128;19;20404;-88
2022/09/27 08:47:55;;;;;;;;;;;16.80;49.20;;;14.89;54.55;99082.22;12244778;19;19982;-87
2022/09/27 08:51:59;;;;;;;;;;;16.80;49.30;;;14.92;54.82;99086.34;12244415;19;19911;-90
2022/09/27 08:56:02;;;;;;;;;;;16.90;49.20;;;14.94;54.64;99081.78;12244008;19;19907;-87
2022/09/27 09:00:12;;;;;;;;;;;16.90;49.10;;;14.89;54.72;99069.06;12244414;19;19933;-88
2022/09/27 09:04:21;;;;;;;;;;;16.90;49.40;;;15.05;54.67;99092.03;12243986;19;19939;-90
2022/09/27 09:08:28;;;;;;;;;;;17.00;49.70;;;15.07;54.64;99076.09;12244993;19;19915;-89
2022/09/27 09:12:45;;;;;;;;;;;17.00;49.20;;;15.17;54.74;99092.59;12248223;19;19983;-89
2022/09/27 09:17:03;;;;;;;;;;;17.00;49.20;;;15.11;54.75;99083.53;12245330;19;20034;-90
2022/09/27 09:21:34;;;;;;;;;;;17.00;49.40;;;15.18;54.97;99089.00;12248740;19;19930;-90
2022/09/27 09:25:41;;;;;;;;;;;17.10;49.10;;;15.04;55.10;99077.22;12245902;19;20010;-90
2022/09/27 09:30:07;;;;;;;;;;;17.10;49.20;;;15.19;55.05;99095.91;12247971;19;20639;-89
2022/09/27 09:34:21;;;;;;;;;;;17.10;49.20;;;15.15;54.97;99092.75;12264313;19;19922;-89
2022/09/27 09:38:52;;;;;;;;;;;17.10;49.10;;;15.24;55.05;99086.56;12243690;19;19919;-89
2022/09/27 09:43:16;;;;;;;;;;;17.10;49.70;;;15.20;55.09;99085.25;12247240;19;19915;-87
2022/09/27 09:47:41;;;;;;;;;;;17.10;49.40;;;15.28;55.13;99079.19;12249597;19;19911;-90
2022/09/27 09:51:47;;;;;;;;;;;17.20;50.00;;;15.37;54.95;99088.78;12248176;19;19922;-90
2022/09/27 09:55:54;;;;;;;;;;;17.20;49.70;;;15.40;55.07;99080.56;12243017;19;20397;-91
2022/09/27 10:00:15;;;;;;;;;;;17.30;49.50;;;15.48;55.15;99090.31;12247418;19;20361;-90
2022/09/27 10:04:26;;;;;;;;;;;17.30;49.80;;;15.42;55.18;99059.38;12244148;19;20277;-90
2022/09/27 10:08:30;;;;;;;;;;;17.40;49.90;;;15.56;55.28;99077.22;12245923;19;20314;-90
2022/09/27 10:12:55;;;;;;;;;;;17.40;50.10;;;15.61;55.08;99072.31;12238579;19;19939;-90
2022/09/27 10:17:08;;;;;;;;;;;17.50;50.00;;;15.53;55.28;99042.47;12239637;19;19922;-87
2022/09/27 10:21:18;;;;;;;;;;;17.50;50.00;;;15.67;55.21;99076.09;12247179;19;19922;-88
2022/09/27 10:25:21;;;;;;;;;;;17.60;49.90;;;15.57;55.28;99057.78;12237775;19;20315;-89
2022/09/27 10:29:30;;;;;;;;;;;17.60;49.50;;;15.13;55.62;98983.47;12252726;19;19940;-89
2022/09/27 10:33:35;;;;;;;;;;;17.60;49.40;;;15.64;55.36;99071.16;12256439;19;19923;-89
2022/09/27 10:37:42;;;;;;;;;;;17.60;49.90;;;15.68;55.36;99072.47;12254697;19;19923;-89
2022/09/27 10:41:47;;;;;;;;;;;17.60;49.80;;;15.73;55.35;99057.06;12252772;19;19923;-88
2022/09/27 10:46:30;;;;;;;;;;;17.60;50.00;;;15.78;55.45;99060.06;12251335;19;19971;-88
2022/09/27 10:51:06;;;;;;;;;;;17.70;49.80;;;15.86;55.33;99062.72;12252501;19;19926;-89
2022/09/27 10:55:25;;;;;;;;;;;17.70;49.90;;;16.01;55.64;99070.81;12252889;19;19978;-90
2022/09/27 10:59:32;;;;;;;;;;;17.80;49.80;;;16.09;55.79;99054.22;12254076;19;20333;-87
2022/09/27 11:03:56;;;;;;;;;;;17.90;49.90;;;16.25;55.54;99040.25;12252642;19;19918;-90
2022/09/27 11:08:01;;;;;;;;;;;18.00;50.20;;;16.15;55.47;99004.38;12254436;19;19922;-90
2022/09/27 11:12:24;;;;;;;;;;;18.10;49.90;;;16.52;55.48;99045.22;12254190;19;19915;-89
2022/09/27 11:16:40;;;;;;;;;;;18.30;50.10;;;16.49;55.33;99036.81;12250324;19;20389;-89
2022/09/27 11:20:52;;;;;;;;;;;18.30;49.80;;;16.55;55.37;99041.41;12255145;19;19917;-89
2022/09/27 11:25:03;;;;;;;;;;;18.40;49.80;;;16.65;55.14;99052.63;12252086;19;19923;-87
2022/09/27 11:29:21;;;;;;;;;;;18.50;49.60;;;16.66;55.44;99050.81;12257017;19;19918;-89
2022/09/27 11:34:13;;;;;;;;;;;18.50;49.50;;;16.67;55.18;99036.66;12254299;19;19939;-89
2022/09/27 11:38:40;;;;;;;;;;;18.50;49.60;;;16.64;55.36;99019.38;12261148;19;19951;-89
2022/09/27 11:43:00;;;;;;;;;;;18.50;49.80;;;16.75;55.23;99028.75;12254319;19;19923;-90
2022/09/27 11:47:26;;;;;;;;;;;18.50;49.80;;;16.76;55.42;99025.94;12252684;19;19922;-89
2022/09/27 11:51:46;;;;;;;;;;;18.60;49.80;;;16.86;55.17;99031.06;12258467;19;20252;-87
2022/09/27 11:56:04;;;;;;;;;;;18.70;50.00;;;16.96;55.40;99029.09;12252407;19;20337;-89
2022/09/27 12:00:19;;;;;;;;;;;19.00;50.00;;;17.05;55.33;99032.53;12258595;19;19915;-87
2022/09/27 12:04:44;;;;;;;;;;;18.80;49.70;;;17.12;55.12;99038.78;12253462;19;19978;-88
2022/09/27 12:09:01;;;;;;;;;;;18.90;49.60;;;17.13;55.12;99061.53;12249427;19;19923;-89
2022/09/27 12:13:04;;;;;;;;;;;18.90;49.50;;;16.90;54.85;99055.28;12250549;19;19947;-89
2022/09/27 12:17:18;;;;;;;;;;;19.00;49.40;;;16.41;54.82;99028.91;12247748;19;19924;-89
2022/09/27 12:21:24;;;;;;;;;;;18.80;49.20;;;16.48;55.00;99085.25;12244022;19;19955;-86
2022/09/27 12:25:34;;;;;;;;;;;18.70;49.10;;;16.27;55.18;99106.78;12238520;19;19937;-87
2022/09/27 12:29:46;;;;;;;;;;;18.50;49.10;;;15.95;54.96;99096.97;12244114;19;19923;-88
2022/09/27 12:34:05;;;;;;;;;;;18.20;49.10;;;15.76;55.09;99093.59;12248194;19;20302;-88
2022/09/27 12:38:21;;;;;;;;;;;18.00;49.10;;;15.77;55.18;99115.47;12247715;19;19944;-89
2022/09/27 12:42:28;;;;;;;;;;;17.90;49.30;;;15.53;55.35;99095.09;12249466;19;19918;-90
2022/09/27 12:46:49;;;;;;;;;;;17.70;49.40;;;15.62;55.34;99107.31;12240532;19;19928;-91
2022/09/27 12:51:05;;;;;;;;;;;17.60;49.50;;;15.54;55.10;99108.09;12244005;19;20260;-91
2022/09/27 12:55:21;;;;;;;;;;;17.60;49.70;;;15.58;55.26;99113.88;12248312;19;20257;-89
2022/09/27 12:59:30;;;;;;;;;;;17.50;49.90;;;15.62;55.44;99117.84;12252426;19;19930;-91
2022/09/27 13:03:42;;;;;;;;;;;17.50;50.20;;;15.67;55.41;99113.78;12248328;19;19922;-91
2022/09/27 13:08:26;;;;;;;;;;;17.50;50.40;;;15.62;55.22;99092.34;12249770;19;19925;-91
2022/09/27 13:12:29;;;;;;;;;;;17.50;50.60;;;15.72;55.51;99102.81;12247952;19;20362;-90
2022/09/27 13:16:41;;;;;;;;;;;17.60;50.60;;;15.78;55.30;99107.44;12245934;19;19958;-90
2022/09/27 13:20:45;;;;;;;;;;;17.90;50.80;;;15.77;55.35;99099.69;12247698;19;20328;-88
2022/09/27 13:25:52;;;;;;;;;;;17.60;50.30;;;15.97;55.39;99122.16;12244797;19;19915;-88
2022/09/27 13:30:06;;;;;;;;;;;17.70;50.60;;;16.03;55.46;99126.78;12244979;19;19938;-87
2022/09/27 13:34:33;;;;;;;;;;;17.80;50.60;;;15.95;55.41;99102.22;12244241;19;19939;-87
2022/09/27 13:38:35;;;;;;;;;;;17.80;50.80;;;15.95;55.40;99115.41;12250767;19;19946;-88
2022/09/27 13:42:45;;;;;;;;;;;17.80;50.30;;;16.01;55.62;99133.19;12248193;19;19931;-88
2022/09/27 13:46:50;;;;;;;;;;;17.80;50.30;;;15.79;55.49;99101.19;12242594;19;19911;-87
2022/09/27 13:51:01;;;;;;;;;;;17.80;50.30;;;16.04;55.35;99132.88;12246510;19;19935;-87
2022/09/27 13:55:44;;;;;;;;;;;17.90;50.40;;;16.05;55.54;99129.25;12244100;19;19934;-87
2022/09/27 14:00:00;;;;;;;;;;;17.90;50.60;;;16.03;55.66;99126.78;12245232;19;19975;-88
2022/09/27 14:04:26;;;;;;;;;;;17.90;50.50;;;15.95;55.63;99103.06;12247854;19;19919;-88
2022/09/27 14:08:32;;;;;;;;;;;17.90;50.50;;;16.13;55.66;99135.38;12256433;19;19915;-87
2022/09/27 14:12:36;;;;;;;;;;;17.90;50.50;;;16.17;55.39;99133.25;12258012;19;20252;-87
2022/09/27 14:16:45;;;;;;;;;;;18.00;50.50;;;16.12;55.37;99133.75;12251679;19;19923;-88
2022/09/27 14:20:50;;;;;;;;;;;18.00;50.40;;;16.07;55.58;99138.66;12256681;19;19922;-88
2022/09/27 14:25:22;;;;;;;;;;;18.00;50.30;;;16.08;55.24;99155.28;12247753;19;19910;-88
2022/09/27 14:29:25;;;;;;;;;;;18.00;50.30;;;16.09;55.49;99159.53;12257390;19;19915;-88
2022/09/27 14:33:33;;;;;;;;;;;18.00;50.40;;;15.98;55.51;99144.03;12255246;19;20275;-88
2022/09/27 14:37:42;;;;;;;;;;;18.00;50.30;;;15.98;55.36;99170.38;12256945;19;19914;-88
2022/09/27 14:41:47;;;;;;;;;;;17.90;50.40;;;15.96;55.71;99167.06;12250896;19;19943;-91
2022/09/27 14:45:52;;;;;;;;;;;17.90;50.50;;;15.92;55.40;99175.28;12252137;19;20331;-91
2022/09/27 14:50:13;;;;;;;;;;;17.90;50.50;;;15.88;55.72;99179.22;12249296;19;19923;-90
2022/09/27 14:54:25;;;;;;;;;;;17.80;50.50;;;15.84;55.54;99172.59;12242304;19;19987;-89
2022/09/27 14:58:28;;;;;;;;;;;17.80;50.50;;;15.81;55.27;99169.47;12250101;19;19927;-88
2022/09/27 15:02:32;;;;;;;;;;;18.00;50.80;;;15.87;55.82;99182.81;12244232;19;20258;-87
2022/09/27 15:06:37;;;;;;;;;;;17.80;50.60;;;15.82;55.77;99186.91;12241864;19;19918;-89
2022/09/27 15:10:39;;;;;;;;;;;17.80;50.70;;;15.79;55.53;99180.13;12252593;19;20289;-88
2022/09/27 15:14:43;;;;;;;;;;;18.00;51.20;;;15.89;55.65;99193.19;12249232;19;19929;-89
2022/09/27 15:18:47;;;;;;;;;;;17.70;50.70;;;15.93;55.79;99202.41;12253628;19;19918;-89
2022/09/27 15:22:49;;;;;;;;;;;18.10;50.90;;;15.84;55.66;99190.22;12251386;19;19921;-91
2022/09/27 15:26:50;;;;;;;;;;;17.70;50.80;;;15.81;55.76;99186.06;12249030;19;19911;-89
2022/09/27 15:30:54;;;;;;;;;;;17.70;50.70;;;15.79;55.83;99193.31;12243406;19;20230;-89
2022/09/27 15:34:56;;;;;;;;;;;17.70;50.70;;;15.76;55.58;99177.81;12250106;19;19934;-89
2022/09/27 15:39:07;;;;;;;;;;;17.80;50.70;;;15.80;55.87;99189.72;12260738;19;19940;-89
2022/09/27 15:43:38;;;;;;;;;;;17.70;51.00;;;15.89;55.90;99203.72;12247880;19;19929;-89
2022/09/27 15:47:46;;;;;;;;;;;17.90;50.80;;;15.84;55.85;99206.81;12239786;19;19925;-89
2022/09/27 15:51:50;;;;;;;;;;;17.80;50.70;;;15.65;55.83;99178.06;12248370;19;19915;-89
2022/09/27 15:55:52;;;;;;;;;;;18.20;50.80;;;15.72;55.75;99208.09;12249877;19;20095;-89
2022/09/27 15:59:53;;;;;;;;;;;17.90;50.70;;;15.80;55.93;99228.38;12248520;19;19919;-89
2022/09/27 16:03:57;;;;;;;;;;;17.70;50.60;;;15.72;55.85;99223.88;12248083;19;20332;-89
2022/09/27 16:08:00;;;;;;;;;;;17.70;50.60;;;15.82;55.77;99236.91;12231039;19;20273;-89
2022/09/27 16:12:01;;;;;;;;;;;17.70;50.70;;;15.66;55.87;99225.28;12249220;19;19949;-89
2022/09/27 16:16:02;;;;;;;;;;;17.70;50.60;;;15.59;55.72;99218.97;12243753;19;20264;-89
2022/09/27 16:20:05;;;;;;;;;;;17.70;50.50;;;15.37;55.83;99188.75;12248258;19;20254;-88
2022/09/27 16:24:07;;;;;;;;;;;17.60;50.30;;;15.56;55.87;99244.78;12243265;19;19914;-89
2022/09/27 16:28:09;;;;;;;;;;;17.50;50.30;;;15.28;55.96;99205.41;12247955;19;19914;-89
2022/09/27 16:32:11;;;;;;;;;;;17.60;50.50;;;15.54;56.09;99252.00;12247220;19;19932;-89
2022/09/27 16:36:18;;;;;;;;;;;17.50;50.60;;;15.53;56.03;99251.19;12244893;19;19919;-89
2022/09/27 16:40:20;;;;;;;;;;;17.40;50.50;;;15.52;55.84;99243.44;12248204;19;19927;-89
2022/09/27 16:44:21;;;;;;;;;;;17.50;50.60;;;15.63;55.96;99269.50;12245775;19;19923;-89
2022/09/27 16:48:22;;;;;;;;;;;17.50;50.70;;;15.61;55.98;99264.41;12249848;19;19926;-89
2022/09/27 16:52:24;;;;;;;;;;;17.70;50.70;;;15.44;55.80;99242.38;12249342;19;19974;-89
2022/09/27 16:56:26;;;;;;;;;;;17.70;50.60;;;15.55;55.79;99257.09;12245301;19;19919;-89
2022/09/27 17:00:30;;;;;;;;;;;17.50;50.60;;;15.41;55.79;99247.94;12248636;19;19982;-89
2022/09/27 17:04:31;;;;;;;;;;;17.40;50.50;;;15.44;55.74;99252.91;12244541;19;20321;-89
2022/09/27 17:08:32;;;;;;;;;;;17.40;50.50;;;15.15;56.17;99216.34;12247634;19;19956;-89
2022/09/27 17:12:34;;;;;;;;;;;17.40;50.50;;;15.43;55.88;99269.66;12245932;19;19915;-89
2022/09/27 17:16:35;;;;;;;;;;;17.40;50.50;;;15.42;56.00;99286.44;12246455;19;19911;-89
2022/09/27 17:20:36;;;;;;;;;;;17.40;50.50;;;15.36;55.76;99270.41;12246445;19;20416;-87
2022/09/27 17:24:38;;;;;;;;;;;17.30;50.40;;;15.00;55.82;99233.63;12244563;19;19914;-88
2022/09/27 17:28:41;;;;;;;;;;;17.30;50.40;;;15.24;55.79;99278.53;12247190;19;19986;-88
2022/09/27 17:32:42;;;;;;;;;;;17.60;50.90;;;15.24;55.91;99289.06;12243452;19;19919;-88
2022/09/27 17:36:48;;;;;;;;;;;17.20;50.40;;;15.25;55.96;99297.78;12241227;19;19911;-88
2022/09/27 17:40:58;;;;;;;;;;;17.20;50.40;;;15.17;55.96;99293.25;12260938;19;19939;-88
2022/09/27 17:44:59;;;;;;;;;;;17.10;50.30;;;15.09;56.08;99287.09;12255646;19;20344;-88
2022/09/27 17:53:22;;;;;;;;;;;17.10;50.30;;;15.14;56.07;99298.81;12261694;19;19919;-89
2022/09/27 17:57:24;;;;;;;;;;;17.10;50.40;;;15.15;55.92;99303.13;12261615;19;19923;-89
2022/09/27 18:01:26;;;;;;;;;;;17.40;50.50;;;14.97;55.87;99292.56;12260562;19;19940;-88
2022/09/27 18:05:28;;;;;;;;;;;17.00;50.20;;;14.88;56.02;99285.59;12252624;19;19923;-88
2022/09/27 18:09:29;;;;;;;;;;;17.00;50.20;;;14.97;55.97;99318.88;12259778;19;20005;-89
2022/09/27 18:13:36;;;;;;;;;;;16.90;50.20;;;14.92;55.92;99317.66;12256949;19;19926;-88
2022/09/27 18:17:37;;;;;;;;;;;16.90;50.20;;;14.76;56.13;99300.72;12260815;19;19918;-88
2022/09/27 18:21:39;;;;;;;;;;;16.90;50.20;;;14.72;56.34;99301.19;12257773;19;19990;-89
2022/09/27 18:25:40;;;;;;;;;;;16.80;50.20;;;14.85;56.16;99321.84;12252936;19;20264;-88
2022/09/27 18:29:42;;;;;;;;;;;16.80;50.20;;;14.69;56.09;99306.69;12259072;19;19922;-88
2022/09/27 18:33:43;;;;;;;;;;;16.70;50.20;;;14.73;56.06;99319.41;12258849;19;19940;-88
2022/09/27 18:37:45;;;;;;;;;;;16.70;50.20;;;14.53;56.12;99300.28;12258982;19;19974;-89
2022/09/27 18:41:47;;;;;;;;;;;16.70;50.20;;;14.57;56.10;99312.16;12260829;19;19919;-89
2022/09/27 18:45:49;;;;;;;;;;;16.70;50.30;;;14.56;56.15;99309.69;12258729;19;19919;-89
2022/09/27 18:49:51;;;;;;;;;;;16.70;50.30;;;14.57;56.20;99322.66;12257978;19;19922;-89
2022/09/27 18:54:00;;;;;;;;;;;16.60;50.30;;;14.67;56.19;99337.56;12257699;19;19975;-88
2022/09/27 18:58:02;;;;;;;;;;;16.60;50.30;;;14.65;56.17;99350.00;12252566;19;19936;-89
2022/09/27 19:02:03;;;;;;;;;;;16.60;50.30;;;14.56;56.25;99330.69;12239707;19;19940;-89
2022/09/27 19:06:08;;;;;;;;;;;16.60;50.30;;;14.58;56.02;99345.34;12253416;19;19982;-89